Time;durP1;ratioP1;P1;durP2;ratioP2;P2;SDS_P1;SDS_P2;PMS_P1;PMS_P2;Temp;Humidity;BMP_temperature;BMP_pressure;BME280_temperature;BME280_humidity;BME280_pressure;Samples;Min_cycle;Max_cycle;Signal;HPM_P1;HPM_P2
2023/03/06 00:00:28;;;;;;;32.13;21.23;;;6.50;99.90;;;;;;4931548;28;20043;-72
2023/03/06 00:02:55;;;;;;;32.53;21.63;;;6.50;99.90;;;;;;4945703;29;20412;-74
2023/03/06 00:05:21;;;;;;;33.70;21.97;;;6.50;99.90;;;;;;4937660;29;20055;-74
2023/03/06 00:07:47;;;;;;;30.07;21.53;;;6.40;99.90;;;;;;4935424;29;20039;-74
2023/03/06 00:10:15;;;;;;;37.17;22.03;;;6.40;99.90;;;;;;4935243;29;20039;-74
2023/03/06 00:12:41;;;;;;;29.97;20.73;;;6.40;99.90;;;;;;4931816;29;20538;-74
2023/03/06 00:15:08;;;;;;;35.43;21.93;;;6.40;99.90;;;;;;4922855;28;20024;-73
2023/03/06 00:17:34;;;;;;;35.00;21.40;;;6.40;99.90;;;;;;4935815;29;20032;-74
2023/03/06 00:20:00;;;;;;;37.40;21.50;;;6.40;99.90;;;;;;4915441;29;20040;-74
2023/03/06 00:22:26;;;;;;;35.47;21.93;;;6.40;99.90;;;;;;4923863;29;20039;-74
2023/03/06 00:24:52;;;;;;;35.83;22.57;;;6.40;99.90;;;;;;4933403;29;20035;-74
2023/03/06 00:27:19;;;;;;;36.93;21.93;;;6.40;99.90;;;;;;4936093;29;20035;-74
2023/03/06 00:29:48;;;;;;;35.37;22.47;;;6.40;99.90;;;;;;4930312;29;20028;-74
2023/03/06 00:32:14;;;;;;;40.03;22.43;;;6.40;99.90;;;;;;4929490;28;20048;-74
2023/03/06 00:34:40;;;;;;;37.37;23.17;;;6.30;99.90;;;;;;4926347;29;20036;-74
2023/03/06 00:37:06;;;;;;;36.60;22.20;;;6.30;99.90;;;;;;4935307;29;20481;-74
2023/03/06 00:39:32;;;;;;;33.10;21.67;;;6.30;99.90;;;;;;4914904;29;20036;-74
2023/03/06 00:41:59;;;;;;;32.53;20.10;;;6.30;99.90;;;;;;4917159;29;20040;-74
2023/03/06 00:44:25;;;;;;;36.67;21.70;;;6.40;99.90;;;;;;4933155;29;20040;-73
2023/03/06 00:46:51;;;;;;;36.37;21.63;;;6.40;99.90;;;;;;4934168;28;20508;-74
2023/03/06 00:49:17;;;;;;;34.20;21.63;;;6.30;99.90;;;;;;4935551;29;20028;-73
2023/03/06 00:51:43;;;;;;;31.63;20.13;;;6.30;99.90;;;;;;4935562;29;20481;-74
2023/03/06 00:54:09;;;;;;;32.50;20.40;;;6.30;99.90;;;;;;4935759;29;20028;-74
2023/03/06 00:56:35;;;;;;;30.27;19.00;;;6.40;99.90;;;;;;4935173;29;20512;-74
2023/03/06 00:59:01;;;;;;;30.77;19.70;;;6.40;99.90;;;;;;4934424;29;20036;-73
2023/03/06 01:01:28;;;;;;;30.50;17.77;;;6.40;99.90;;;;;;4928920;28;20040;-74
2023/03/06 01:03:54;;;;;;;23.00;14.67;;;6.30;99.90;;;;;;4927188;29;20489;-74
2023/03/06 01:06:20;;;;;;;22.80;13.07;;;6.10;99.90;;;;;;4932784;29;20042;-73
2023/03/06 01:08:46;;;;;;;24.13;13.47;;;6.00;99.90;;;;;;4933056;29;20485;-74
2023/03/06 01:11:12;;;;;;;21.30;14.10;;;5.80;99.90;;;;;;4935004;29;20058;-73
2023/03/06 01:13:38;;;;;;;19.60;13.10;;;5.80;99.90;;;;;;4932506;29;20473;-74
2023/03/06 01:16:08;;;;;;;20.77;13.53;;;5.90;99.90;;;;;;4934264;28;20059;-74
2023/03/06 01:18:34;;;;;;;21.47;12.80;;;5.90;99.90;;;;;;4916534;29;20038;-73
2023/03/06 01:21:01;;;;;;;21.60;13.90;;;6.00;99.90;;;;;;4932101;29;20031;-73
2023/03/06 01:23:27;;;;;;;23.33;14.33;;;6.10;99.90;;;;;;4932957;29;20051;-73
2023/03/06 01:25:53;;;;;;;23.07;13.83;;;6.10;99.90;;;;;;4934896;29;20517;-73
2023/03/06 01:28:19;;;;;;;20.90;13.60;;;6.10;99.90;;;;;;4933378;29;20035;-74
2023/03/06 01:30:45;;;;;;;18.73;12.73;;;6.20;99.90;;;;;;4932863;28;20039;-74
2023/03/06 01:33:11;;;;;;;19.33;13.37;;;6.30;99.90;;;;;;4930825;29;20040;-73
2023/03/06 01:35:38;;;;;;;18.50;12.20;;;6.30;99.90;;;;;;4932500;29;20051;-73
2023/03/06 01:38:04;;;;;;;20.33;13.30;;;6.10;99.90;;;;;;4933449;29;20031;-73
2023/03/06 01:40:31;;;;;;;19.60;13.20;;;6.10;99.90;;;;;;4933516;29;20032;-74
2023/03/06 01:42:57;;;;;;;23.77;13.33;;;6.10;99.90;;;;;;4932408;29;20036;-74
2023/03/06 01:45:23;;;;;;;19.73;12.73;;;6.10;99.90;;;;;;4934501;28;20485;-73
2023/03/06 01:47:49;;;;;;;22.33;13.47;;;6.00;99.90;;;;;;4933064;29;20483;-73
2023/03/06 01:50:15;;;;;;;19.63;12.83;;;6.00;99.90;;;;;;4934594;29;20031;-73
2023/03/06 01:52:56;;;;;;;20.67;13.47;;;6.10;99.90;;;;;;4914854;29;20497;-73
2023/03/06 01:55:25;;;;;;;17.87;13.10;;;6.10;99.90;;;;;;4915185;29;20035;-73
2023/03/06 01:57:53;;;;;;;19.33;13.17;;;6.10;99.90;;;;;;4911757;29;20315;-73
2023/03/06 02:00:21;;;;;;;19.83;13.03;;;6.10;99.90;;;;;;4931611;28;20035;-74
2023/03/06 02:02:57;;;;;;;20.80;12.70;;;6.10;99.90;;;;;;4933387;29;20032;-73
2023/03/06 02:05:23;;;;;;;20.40;12.30;;;6.00;99.90;;;;;;4917855;29;20034;-74
2023/03/06 02:07:50;;;;;;;21.73;12.73;;;6.10;99.90;;;;;;4917503;29;20106;-73
2023/03/06 02:10:16;;;;;;;15.33;11.23;;;6.00;99.90;;;;;;4916147;29;20059;-73
2023/03/06 02:12:42;;;;;;;17.10;11.00;;;6.00;99.90;;;;;;4918387;29;20048;-73
2023/03/06 02:15:12;;;;;;;19.27;12.97;;;5.90;99.90;;;;;;4913303;28;20484;-73
2023/03/06 02:17:38;;;;;;;19.63;12.17;;;5.90;99.90;;;;;;4917541;29;20035;-72
2023/03/06 02:20:25;;;;;;;17.70;11.73;;;5.90;99.90;;;;;;4932115;29;20027;-72
2023/03/06 02:23:09;;;;;;;15.77;10.50;;;6.00;99.90;;;;;;4930584;29;20051;-73
2023/03/06 02:25:43;;;;;;;20.13;11.70;;;6.00;99.90;;;;;;4918014;29;20054;-73
2023/03/06 02:28:14;;;;;;;17.27;12.10;;;6.00;99.90;;;;;;4932406;29;20028;-73
2023/03/06 02:30:40;;;;;;;;;;;6.00;99.90;;;;;;4916520;28;20409;-73
2023/03/06 02:33:06;;;;;;;22.27;12.73;;;5.80;99.90;;;;;;4933888;29;19914;-72
2023/03/06 02:35:34;;;;;;;17.93;11.37;;;5.80;99.90;;;;;;4931729;29;20039;-72
2023/03/06 02:38:11;;;;;;;17.77;11.67;;;5.80;99.90;;;;;;4917788;29;20046;-73
2023/03/06 02:40:37;;;;;;;18.27;11.20;;;5.80;99.90;;;;;;4915586;29;20355;-73
2023/03/06 02:43:03;;;;;;;20.17;11.53;;;5.90;99.90;;;;;;4932947;29;20047;-72
2023/03/06 02:45:43;;;;;;;19.93;13.77;;;5.80;99.90;;;;;;4931009;29;20040;-73
2023/03/06 02:48:09;;;;;;;20.50;13.17;;;5.90;99.90;;;;;;4915287;29;20039;-73
2023/03/06 02:50:35;;;;;;;27.03;13.00;;;5.80;99.90;;;;;;4917328;29;20051;-73
2023/03/06 02:53:01;;;;;;;23.73;13.50;;;5.90;99.90;;;;;;4934718;29;20500;-73
2023/03/06 02:55:27;;;;;;;22.73;13.20;;;5.80;99.90;;;;;;4934846;29;20043;-73
2023/03/06 02:57:53;;;;;;;19.63;11.87;;;5.80;99.90;;;;;;4934754;29;20032;-73
2023/03/06 03:00:19;;;;;;;17.93;11.63;;;5.70;99.90;;;;;;4932887;28;20024;-73
2023/03/06 03:02:45;;;;;;;21.93;13.93;;;5.70;99.90;;;;;;4935226;29;20043;-73
2023/03/06 03:05:11;;;;;;;22.17;14.13;;;5.80;99.90;;;;;;4932159;29;20042;-73
2023/03/06 03:07:38;;;;;;;23.47;13.13;;;5.90;99.90;;;;;;4933716;29;20080;-73
2023/03/06 03:10:04;;;;;;;17.40;8.90;;;5.90;99.90;;;;;;4916236;29;20059;-73
2023/03/06 03:12:31;;;;;;;21.10;13.20;;;5.80;99.90;;;;;;4933360;29;20091;-73
2023/03/06 03:14:57;;;;;;;23.90;13.93;;;5.80;99.90;;;;;;4936169;29;20024;-73
2023/03/06 03:17:23;;;;;;;21.73;13.73;;;5.70;99.90;;;;;;4934920;29;20032;-73
2023/03/06 03:19:49;;;;;;;23.27;14.03;;;5.80;99.90;;;;;;4937284;29;20035;-72
2023/03/06 03:22:16;;;;;;;21.30;14.23;;;5.80;99.90;;;;;;4936646;29;20400;-73
2023/03/06 03:24:42;;;;;;;19.20;13.03;;;5.80;99.90;;;;;;4936494;29;20380;-73
2023/03/06 03:27:08;;;;;;;24.00;13.10;;;5.80;99.90;;;;;;4920338;29;20031;-73
2023/03/06 03:29:35;;;;;;;23.67;14.23;;;5.80;99.90;;;;;;4934370;29;20469;-73
2023/03/06 03:32:01;;;;;;;22.63;14.03;;;5.70;99.90;;;;;;4920834;28;20033;-73
2023/03/06 03:34:27;;;;;;;24.27;14.37;;;5.70;99.90;;;;;;4905027;29;20430;-73
2023/03/06 03:36:53;;;;;;;23.63;14.03;;;5.70;99.90;;;;;;4918485;29;20035;-73
2023/03/06 03:39:19;;;;;;;21.23;13.57;;;5.80;99.90;;;;;;4900635;29;20032;-73
2023/03/06 03:41:45;;;;;;;22.50;13.97;;;6.00;99.90;;;;;;4902253;29;20401;-73
2023/03/06 03:44:11;;;;;;;21.77;13.30;;;6.00;99.90;;;;;;4915847;29;20036;-73
2023/03/06 03:46:37;;;;;;;21.00;13.17;;;6.00;99.90;;;;;;4917762;28;20039;-73
2023/03/06 03:49:04;;;;;;;25.43;13.67;;;6.00;99.90;;;;;;4912193;29;20032;-74
2023/03/06 03:51:30;;;;;;;21.70;14.53;;;5.90;99.90;;;;;;4915905;29;20036;-73
2023/03/06 03:53:56;;;;;;;20.70;13.57;;;5.90;99.90;;;;;;4916133;29;20066;-74
2023/03/06 03:56:23;;;;;;;20.00;13.10;;;6.00;99.90;;;;;;4915948;29;20027;-73
2023/03/06 03:58:50;;;;;;;21.80;13.00;;;6.10;99.90;;;;;;4914043;29;20028;-73
2023/03/06 04:01:16;;;;;;;25.27;14.00;;;6.00;99.90;;;;;;4909113;29;20065;-73
2023/03/06 04:03:42;;;;;;;19.13;13.17;;;6.10;99.90;;;;;;4941968;29;20036;-73
2023/03/06 04:06:08;;;;;;;19.50;12.83;;;6.10;99.90;;;;;;4917034;29;20034;-73
2023/03/06 04:08:34;;;;;;;24.07;13.00;;;6.10;99.90;;;;;;4921795;29;20047;-72
2023/03/06 04:11:01;;;;;;;22.90;14.53;;;6.10;99.90;;;;;;4930739;29;20059;-72
2023/03/06 04:13:27;;;;;;;24.47;14.60;;;6.10;99.90;;;;;;4930031;29;20055;-73
2023/03/06 04:15:54;;;;;;;24.17;13.73;;;6.00;99.90;;;;;;4935431;28;20032;-73
2023/03/06 04:18:21;;;;;;;23.40;14.23;;;6.00;99.90;;;;;;4944883;29;20031;-71
2023/03/06 04:20:47;;;;;;;88.03;34.37;;;6.10;99.90;;;;;;4936625;29;20050;-73
2023/03/06 04:23:14;;;;;;;82.10;33.03;;;6.20;99.90;;;;;;4932061;29;20031;-73
2023/03/06 04:25:40;;;;;;;54.20;24.93;;;6.30;99.90;;;;;;4933473;29;20032;-72
2023/03/06 04:28:06;;;;;;;51.47;23.57;;;6.10;99.90;;;;;;4918878;29;20028;-73
2023/03/06 04:30:32;;;;;;;60.43;27.30;;;6.20;99.90;;;;;;4919181;28;20032;-73
2023/03/06 04:32:59;;;;;;;44.30;20.90;;;6.30;99.90;;;;;;4934638;29;20039;-73
2023/03/06 04:35:25;;;;;;;50.33;22.13;;;6.20;99.90;;;;;;4920487;29;20044;-73
2023/03/06 04:37:51;;;;;;;37.87;20.67;;;6.20;99.90;;;;;;4933802;29;20032;-73
2023/03/06 04:40:19;;;;;;;39.83;19.43;;;6.30;99.90;;;;;;4903155;29;20496;-73
2023/03/06 04:42:45;;;;;;;40.23;22.40;;;6.30;99.90;;;;;;4918585;29;20026;-73
2023/03/06 04:45:11;;;;;;;42.60;22.20;;;6.40;99.90;;;;;;4934307;28;20032;-73
2023/03/06 04:47:37;;;;;;;34.33;19.03;;;6.40;99.90;;;;;;4935668;29;20032;-73
2023/03/06 04:50:03;;;;;;;29.27;16.80;;;6.30;99.90;;;;;;4933008;29;20035;-73
2023/03/06 04:52:29;;;;;;;27.37;16.20;;;6.40;99.90;;;;;;4930443;29;20044;-73
2023/03/06 04:54:56;;;;;;;28.97;16.13;;;6.40;99.90;;;;;;4940909;29;20071;-73
2023/03/06 04:57:22;;;;;;;24.03;15.13;;;6.50;99.90;;;;;;4935972;29;20044;-73
2023/03/06 04:59:49;;;;;;;24.23;15.47;;;6.50;99.90;;;;;;4933703;29;20035;-73
2023/03/06 05:02:16;;;;;;;21.67;14.13;;;6.40;99.90;;;;;;4934546;29;20091;-73
2023/03/06 05:04:42;;;;;;;28.27;15.37;;;6.40;99.90;;;;;;4935019;29;20040;-73
2023/03/06 05:07:08;;;;;;;25.63;14.50;;;6.50;99.90;;;;;;4934228;29;20401;-73
2023/03/06 05:09:35;;;;;;;21.73;14.47;;;6.50;99.90;;;;;;4935426;29;20066;-73
2023/03/06 05:12:01;;;;;;;26.47;14.93;;;6.50;99.90;;;;;;4922532;29;20032;-73
2023/03/06 05:14:31;;;;;;;29.37;15.40;;;6.40;99.90;;;;;;4934920;29;20047;-73
2023/03/06 05:16:57;;;;;;;28.13;16.03;;;6.50;99.90;;;;;;4934414;28;20655;-73
2023/03/06 05:19:23;;;;;;;23.00;14.23;;;6.50;99.90;;;;;;4919332;29;20096;-73
2023/03/06 05:21:49;;;;;;;24.13;15.40;;;6.50;99.90;;;;;;4934737;29;20576;-73
2023/03/06 05:24:15;;;;;;;26.90;15.97;;;6.50;99.90;;;;;;4934448;29;20042;-74
2023/03/06 05:26:41;;;;;;;28.20;16.17;;;6.40;99.90;;;;;;4934304;29;20486;-73
2023/03/06 05:29:07;;;;;;;24.27;15.63;;;6.50;99.90;;;;;;4933035;29;20027;-73
2023/03/06 05:31:33;;;;;;;27.83;14.50;;;6.40;99.90;;;;;;4918675;28;20063;-73
2023/03/06 05:33:59;;;;;;;21.97;14.80;;;6.30;99.90;;;;;;4933890;29;20035;-73
2023/03/06 05:36:25;;;;;;;20.07;13.93;;;6.20;99.90;;;;;;4932666;29;20027;-73
2023/03/06 05:38:52;;;;;;;23.97;14.13;;;6.20;99.90;;;;;;4934056;29;20028;-73
2023/03/06 05:41:18;;;;;;;24.23;15.20;;;6.20;99.90;;;;;;4933521;29;20035;-74
2023/03/06 05:43:44;;;;;;;23.50;14.57;;;6.20;99.90;;;;;;4933983;29;20040;-73
2023/03/06 05:46:10;;;;;;;23.33;15.17;;;6.20;99.90;;;;;;4931514;29;20038;-73
2023/03/06 05:48:36;;;;;;;24.00;15.00;;;6.20;99.90;;;;;;4935612;29;20035;-73
2023/03/06 05:51:02;;;;;;;22.93;14.67;;;6.20;99.90;;;;;;4933351;29;20038;-73
2023/03/06 05:53:29;;;;;;;23.87;15.07;;;6.20;99.90;;;;;;4935502;29;20044;-73
2023/03/06 05:55:56;;;;;;;22.47;14.10;;;6.20;99.90;;;;;;4933278;29;20032;-73
2023/03/06 05:58:22;;;;;;;25.73;14.67;;;6.20;99.90;;;;;;4933971;29;20040;-73
2023/03/06 06:00:49;;;;;;;23.13;15.13;;;6.20;99.90;;;;;;4933027;29;20054;-73
2023/03/06 06:03:15;;;;;;;25.67;15.03;;;6.20;99.90;;;;;;4916179;29;20042;-73
2023/03/06 06:05:41;;;;;;;26.17;14.63;;;6.20;99.90;;;;;;4917245;29;20027;-73
2023/03/06 06:08:07;;;;;;;22.53;14.37;;;6.10;99.90;;;;;;4935597;29;20040;-73
2023/03/06 06:10:33;;;;;;;24.53;15.37;;;6.10;99.90;;;;;;4941918;29;20051;-73
2023/03/06 06:12:59;;;;;;;26.60;14.50;;;6.20;99.90;;;;;;4946875;29;20039;-76
2023/03/06 06:15:27;;;;;;;25.17;15.50;;;6.10;99.90;;;;;;4934003;28;20098;-73
2023/03/06 06:17:55;;;;;;;22.70;14.33;;;6.10;99.90;;;;;;4932285;29;20028;-73
2023/03/06 06:20:21;;;;;;;23.50;14.83;;;6.10;99.90;;;;;;4933476;29;20036;-72
2023/03/06 06:22:47;;;;;;;26.73;14.43;;;6.10;99.90;;;;;;4917012;29;20024;-73
2023/03/06 06:25:13;;;;;;;23.70;14.77;;;6.10;99.90;;;;;;4934218;29;20042;-73
2023/03/06 06:27:39;;;;;;;26.80;14.97;;;6.20;99.90;;;;;;4934409;29;20023;-73
2023/03/06 06:30:06;;;;;;;26.93;15.30;;;6.20;99.90;;;;;;4930741;28;20038;-73
2023/03/06 06:32:32;;;;;;;23.10;14.10;;;6.20;99.90;;;;;;4932170;29;20048;-73
2023/03/06 06:34:58;;;;;;;21.87;14.03;;;6.30;99.90;;;;;;4902060;29;20516;-74
2023/03/06 06:37:27;;;;;;;21.80;13.93;;;6.30;99.90;;;;;;4931352;29;20051;-73
2023/03/06 06:39:53;;;;;;;24.17;14.57;;;6.40;99.90;;;;;;4917296;29;20040;-73
2023/03/06 06:42:19;;;;;;;23.57;14.57;;;6.40;99.90;;;;;;4932638;29;20492;-74
2023/03/06 06:44:45;;;;;;;60.60;16.90;;;6.40;99.90;;;;;;4930245;29;20374;-73
2023/03/06 06:47:11;;;;;;;22.53;14.40;;;6.40;99.90;;;;;;4917899;28;20051;-73
2023/03/06 06:49:38;;;;;;;25.70;14.37;;;6.40;99.90;;;;;;4935853;29;20063;-73
2023/03/06 06:52:04;;;;;;;25.00;13.80;;;6.50;99.90;;;;;;4935430;29;20596;-73
2023/03/06 06:54:32;;;;;;;27.10;14.93;;;6.50;99.90;;;;;;4935559;29;20052;-74
2023/03/06 06:56:58;;;;;;;25.07;14.67;;;6.50;99.90;;;;;;4937368;29;20389;-73
2023/03/06 06:59:24;;;;;;;23.37;14.03;;;6.50;99.90;;;;;;4937347;29;20382;-74
2023/03/06 07:01:51;;;;;;;31.00;13.90;;;6.60;99.90;;;;;;4937560;28;20035;-73
2023/03/06 07:04:17;;;;;;;23.50;14.30;;;6.50;99.90;;;;;;4936797;29;20031;-73
2023/03/06 07:06:44;;;;;;;23.90;13.33;;;6.50;99.90;;;;;;4936019;29;20031;-73
2023/03/06 07:09:10;;;;;;;22.23;14.60;;;6.50;99.90;;;;;;4937204;29;20035;-73
2023/03/06 07:11:37;;;;;;;21.20;14.13;;;6.50;99.90;;;;;;4924165;29;20472;-74
2023/03/06 07:14:03;;;;;;;22.50;14.20;;;6.50;99.90;;;;;;4940353;29;20035;-73
2023/03/06 07:16:29;;;;;;;23.23;13.50;;;6.50;99.90;;;;;;4926306;29;20040;-73
2023/03/06 07:18:55;;;;;;;26.40;14.90;;;6.50;99.90;;;;;;4936393;29;20515;-73
2023/03/06 07:21:21;;;;;;;25.97;15.40;;;6.50;99.90;;;;;;4937352;29;20037;-71
2023/03/06 07:23:48;;;;;;;24.53;15.17;;;6.50;99.90;;;;;;4948662;29;20059;-72
2023/03/06 07:26:14;;;;;;;23.90;15.33;;;6.60;99.90;;;;;;4945853;29;20031;-73
2023/03/06 07:28:40;;;;;;;29.30;15.67;;;6.60;99.90;;;;;;4937680;29;20110;-74
2023/03/06 07:31:10;;;;;;;23.10;14.30;;;6.60;99.90;;;;;;4935158;28;20508;-73
2023/03/06 07:33:37;;;;;;;25.20;14.83;;;6.60;99.90;;;;;;4904748;29;20059;-73
2023/03/06 07:36:07;;;;;;;22.90;15.17;;;6.70;99.90;;;;;;4936254;28;20052;-73
2023/03/06 07:38:33;;;;;;;22.17;15.30;;;6.70;99.90;;;;;;4935522;29;20051;-73
2023/03/06 07:40:59;;;;;;;22.43;15.27;;;6.70;99.90;;;;;;4935556;29;20042;-73
2023/03/06 07:43:26;;;;;;;29.97;16.27;;;6.70;99.90;;;;;;4934620;29;20381;-73
2023/03/06 07:45:56;;;;;;;30.00;18.87;;;6.70;99.90;;;;;;4932540;28;20047;-73
2023/03/06 07:48:22;;;;;;;29.90;19.55;;;6.60;99.90;;;;;;4934071;29;21919;-73
2023/03/06 07:50:59;;;;;;;33.50;20.67;;;6.70;99.90;;;;;;4916629;29;20441;-73
2023/03/06 07:53:25;;;;;;;29.50;18.67;;;6.80;99.90;;;;;;4932392;29;20040;-73
2023/03/06 07:55:51;;;;;;;31.07;20.00;;;6.80;99.90;;;;;;4942999;29;20031;-73
2023/03/06 07:58:17;;;;;;;29.13;17.37;;;6.80;99.90;;;;;;4943197;29;20027;-73
2023/03/06 08:00:44;;;;;;;30.05;17.25;;;6.80;99.90;;;;;;4934022;28;20040;-73
2023/03/06 08:03:13;;;;;;;28.05;16.08;;;6.70;99.90;;;;;;4939774;29;20031;-73
2023/03/06 08:05:39;;;;;;;22.73;14.37;;;6.70;99.90;;;;;;4903541;29;20500;-73
2023/03/06 08:08:05;;;;;;;25.07;15.03;;;6.70;99.90;;;;;;4936046;29;20046;-73
2023/03/06 08:10:31;;;;;;;25.70;15.53;;;6.70;99.90;;;;;;4928549;29;20059;-73
2023/03/06 08:12:57;;;;;;;24.53;15.20;;;6.70;99.90;;;;;;4935262;29;20054;-74
2023/03/06 08:15:23;;;;;;;28.13;15.00;;;6.80;99.90;;;;;;4932603;28;20058;-73
2023/03/06 08:17:50;;;;;;;25.60;14.93;;;6.80;99.90;;;;;;4933554;29;20362;-73
2023/03/06 08:20:17;;;;;;;24.83;14.87;;;6.80;99.90;;;;;;4917860;29;20028;-73
2023/03/06 08:22:44;;;;;;;24.57;14.87;;;6.90;99.90;;;;;;4934407;29;20027;-73
2023/03/06 08:25:12;;;;;;;24.27;14.93;;;6.90;99.90;;;;;;4933007;29;20024;-73
2023/03/06 08:27:38;;;;;;;26.25;14.80;;;6.90;99.90;;;;;;4918618;29;20042;-76
2023/03/06 08:30:05;;;;;;;23.08;14.73;;;7.00;99.90;;;;;;4934180;28;20034;-72
2023/03/06 08:32:34;;;;;;;30.23;14.48;;;7.10;99.90;;;;;;4936697;29;20043;-72
2023/03/06 08:35:04;;;;;;;28.83;15.80;;;7.20;99.90;;;;;;4931571;29;20031;-71
2023/03/06 08:37:30;;;;;;;36.33;15.63;;;7.20;99.90;;;;;;4917835;29;20051;-73
2023/03/06 08:39:56;;;;;;;35.05;16.00;;;7.40;99.90;;;;;;4931865;29;20384;-73
2023/03/06 08:42:22;;;;;;;23.05;14.95;;;7.40;99.90;;;;;;4933365;29;20039;-73
2023/03/06 08:44:49;;;;;;;27.20;14.95;;;7.40;99.90;;;;;;4935552;28;20516;-73
2023/03/06 08:47:15;;;;;;;29.92;15.00;;;7.40;99.90;;;;;;4920368;28;20036;-73
2023/03/06 08:49:41;;;;;;;27.60;15.82;;;7.40;99.90;;;;;;4935222;28;20051;-73
2023/03/06 08:52:07;;;;;;;27.70;15.48;;;7.50;99.90;;;;;;4916686;29;20044;-73
2023/03/06 08:54:34;;;;;;;25.00;14.35;;;7.50;99.90;;;;;;4931638;29;20047;-73
2023/03/06 08:57:00;;;;;;;26.50;15.77;;;7.60;99.90;;;;;;4934811;29;20036;-72
2023/03/06 08:59:26;;;;;;;23.05;14.98;;;7.70;99.90;;;;;;4934126;29;20047;-73
2023/03/06 09:01:52;;;;;;;32.92;15.25;;;7.70;99.90;;;;;;4940130;28;20452;-73
2023/03/06 09:04:18;;;;;;;26.42;15.38;;;7.70;99.90;;;;;;4920096;29;20042;-73
2023/03/06 09:06:45;;;;;;;25.40;15.00;;;7.80;99.90;;;;;;4933539;29;20393;-73
2023/03/06 09:09:11;;;;;;;23.55;15.75;;;7.70;99.90;;;;;;4945347;29;20031;-73
2023/03/06 09:11:37;;;;;;;23.67;15.18;;;7.80;99.90;;;;;;4936472;29;20043;-73
2023/03/06 09:14:04;;;;;;;24.63;15.85;;;7.80;99.90;;;;;;4917845;29;20039;-73
2023/03/06 09:16:30;;;;;;;30.35;16.92;;;7.70;99.90;;;;;;4934330;28;20036;-72
2023/03/06 09:18:57;;;;;;;25.80;16.52;;;7.70;99.90;;;;;;4934025;29;20035;-73
2023/03/06 09:21:23;;;;;;;25.10;16.05;;;7.80;99.90;;;;;;4933980;29;20619;-73
2023/03/06 09:23:49;;;;;;;29.92;16.85;;;7.90;99.90;;;;;;4933894;29;20055;-73
2023/03/06 09:26:16;;;;;;;27.30;15.60;;;7.90;99.90;;;;;;4933968;29;20501;-70
2023/03/06 09:28:42;;;;;;;22.92;14.85;;;8.00;99.90;;;;;;4931259;29;20067;-70
2023/03/06 09:31:09;;;;;;;24.42;15.05;;;8.10;99.90;;;;;;4933828;28;20092;-72
2023/03/06 09:33:35;;;;;;;25.35;15.68;;;8.10;99.90;;;;;;4933929;29;20051;-72
2023/03/06 09:36:01;;;;;;;26.60;15.52;;;8.20;99.90;;;;;;4924684;29;20043;-72
2023/03/06 09:38:27;;;;;;;34.10;16.48;;;8.20;99.90;;;;;;4917523;29;20031;-72
2023/03/06 09:40:56;;;;;;;29.77;15.93;;;8.20;99.90;;;;;;4931339;29;20047;-73
2023/03/06 09:43:31;;;;;;;24.88;16.50;;;8.30;99.90;;;;;;4935282;29;20032;-75
2023/03/06 09:45:57;;;;;;;24.35;14.90;;;8.30;99.90;;;;;;4901913;28;20312;-72
2023/03/06 09:48:39;;;;;;;23.20;14.60;;;8.20;99.90;;;;;;4933501;29;20028;-72
2023/03/06 09:51:15;;;;;;;24.20;15.82;;;8.30;99.90;;;;;;4934317;29;20028;-72
2023/03/06 09:53:49;;;;;;;24.70;15.15;;;8.30;99.90;;;;;;4918736;29;20028;-72
2023/03/06 09:56:18;;;;;;;25.17;15.60;;;8.20;99.90;;;;;;4931512;29;20028;-72
2023/03/06 09:58:47;;;;;;;26.23;15.65;;;8.20;99.90;;;;;;4915779;29;20484;-72
2023/03/06 10:01:21;;;;;;;25.73;16.35;;;8.30;99.90;;;;;;4933348;29;20401;-72
2023/03/06 10:03:58;;;;;;;24.05;15.25;;;8.30;99.90;;;;;;4934219;29;20492;-72
2023/03/06 10:06:44;;;;;;;31.17;15.82;;;8.40;99.90;;;;;;4918338;29;20043;-72
2023/03/06 10:09:19;;;;;;;24.75;14.88;;;8.20;99.90;;;;;;4932127;29;20059;-72
2023/03/06 10:11:52;;;;;;;24.63;16.38;;;8.20;99.90;;;;;;4922612;29;20062;-72
2023/03/06 10:14:43;;;;;;;22.52;14.95;;;8.20;99.90;;;;;;4934591;29;20055;-72
2023/03/06 10:17:20;;;;;;;22.50;14.15;;;8.30;99.90;;;;;;4940337;28;20036;-72
2023/03/06 10:19:46;;;;;;;26.25;15.02;;;8.40;99.90;;;;;;4930507;29;20032;-72
2023/03/06 10:22:18;;;;;;;25.52;14.98;;;8.50;99.90;;;;;;4933624;29;20028;-65
2023/03/06 10:24:44;;;;;;;29.00;17.10;;;8.60;99.90;;;;;;4932305;29;20039;-72
2023/03/06 10:27:32;;;;;;;23.85;15.43;;;8.70;99.90;;;;;;4929574;28;20039;-72
2023/03/06 10:30:31;;;;;;;21.63;13.93;;;8.80;99.90;;;;;;4934013;29;20495;-72
2023/03/06 10:32:59;;;;;;;23.70;13.65;;;8.80;99.90;;;;;;4898163;29;20031;-72
2023/03/06 10:35:38;;;;;;;21.73;13.52;;;8.90;99.90;;;;;;4933479;29;20047;-72
2023/03/06 10:38:30;;;;;;;21.67;13.13;;;8.70;99.90;;;;;;4928927;29;20148;-72
2023/03/06 10:41:06;;;;;;;24.23;13.23;;;8.60;99.90;;;;;;4927980;29;20032;-73
2023/03/06 10:43:37;;;;;;;23.92;15.60;;;8.50;99.90;;;;;;4928302;29;20031;-72
2023/03/06 10:46:03;;;;;;;24.08;14.50;;;8.70;99.90;;;;;;4924225;28;20035;-72
2023/03/06 10:48:32;;;;;;;23.25;15.60;;;8.70;99.90;;;;;;4901895;29;20393;-72
2023/03/06 10:51:18;;;;;;;30.10;16.58;;;8.70;99.90;;;;;;4932431;29;20039;-72
2023/03/06 10:53:54;;;;;;;25.15;15.45;;;8.60;99.90;;;;;;4934386;29;20028;-71
2023/03/06 10:56:29;;;;;;;23.20;14.48;;;8.60;99.90;;;;;;4931313;29;20036;-72
2023/03/06 10:59:07;;;;;;;27.20;17.13;;;8.60;99.90;;;;;;4933529;29;20036;-72
2023/03/06 11:01:33;;;;;;;20.92;14.50;;;8.70;99.90;;;;;;4931590;29;20393;-72
2023/03/06 11:04:22;;;;;;;22.92;16.63;;;8.90;99.90;;;;;;4917609;29;20503;-71
2023/03/06 11:07:03;;;;;;;30.75;18.25;;;8.80;99.90;;;;;;4929311;29;20043;-72
2023/03/06 11:09:29;;;;;;;22.00;15.55;;;8.70;99.90;;;;;;4924419;29;20039;-72
2023/03/06 11:12:20;;;;;;;21.35;15.05;;;8.70;99.90;;;;;;4940493;29;20034;-72
2023/03/06 11:14:46;;;;;;;17.70;12.97;;;8.90;99.90;;;;;;4933035;29;20040;-72
2023/03/06 11:17:28;;;;;;;17.85;12.63;;;8.90;99.90;;;;;;4932971;28;20279;-72
2023/03/06 11:20:13;;;;;;;22.02;13.35;;;8.90;99.90;;;;;;4931858;29;20027;-72
2023/03/06 11:22:39;;;;;;;23.48;14.13;;;8.90;99.90;;;;;;4934287;29;20043;-72
2023/03/06 11:25:08;;;;;;;22.65;13.05;;;8.90;99.90;;;;;;4927882;29;20036;-72
2023/03/06 11:27:35;;;;;;;19.30;13.45;;;9.00;99.90;;;;;;4928870;29;20038;-73
2023/03/06 11:30:03;;;;;;;18.90;13.93;;;9.10;99.90;;;;;;4931694;29;20039;-73
2023/03/06 11:32:41;;;;;;;19.25;13.77;;;9.10;99.90;;;;;;4925563;29;20119;-72
2023/03/06 11:35:34;;;;;;;21.17;14.85;;;9.20;99.90;;;;;;4914353;29;20417;-72
2023/03/06 11:38:13;;;;;;;23.23;15.10;;;9.20;99.90;;;;;;4918969;29;20039;-72
2023/03/06 11:40:43;;;;;;;22.85;14.68;;;9.30;99.90;;;;;;4902048;29;20043;-72
2023/03/06 11:43:26;;;;;;;31.65;21.88;;;9.40;99.90;;;;;;4916093;29;20032;-73
2023/03/06 11:46:21;;;;;;;25.40;17.52;;;9.50;99.90;;;;;;4911775;29;20474;-73
2023/03/06 11:49:17;;;;;;;23.60;15.02;;;9.60;99.90;;;;;;4916836;29;20048;-72
2023/03/06 11:51:47;;;;;;;21.40;13.77;;;9.60;99.90;;;;;;4909236;29;20040;-72
2023/03/06 11:54:13;;;;;;;18.88;12.85;;;9.60;99.90;;;;;;4913498;29;20091;-73
2023/03/06 11:56:58;;;;;;;23.75;17.17;;;9.60;99.90;;;;;;4932055;29;20040;-72
2023/03/06 11:59:53;;;;;;;26.92;20.63;;;9.60;99.90;;;;;;4916312;29;20046;-73
2023/03/06 12:02:41;;;;;;;25.55;18.27;;;9.70;99.90;;;;;;4896354;29;20149;-73
2023/03/06 12:05:25;;;;;;;19.13;14.15;;;9.70;99.90;;;;;;4930759;29;20044;-72
2023/03/06 12:08:16;;;;;;;27.23;17.70;;;9.60;99.90;;;;;;4915596;29;20481;-72
2023/03/06 12:10:46;;;;;;;25.02;18.70;;;9.60;99.90;;;;;;4913013;29;20425;-73
2023/03/06 12:13:56;;;;;;;25.02;16.10;;;9.60;99.90;;;;;;4916395;29;20473;-73
2023/03/06 12:16:37;;;;;;;15.47;11.47;;;9.60;99.90;;;;;;4911360;29;20206;-72
2023/03/06 12:19:16;;;;;;;;;;;9.60;99.90;;;;;;4900558;29;20663;-72
2023/03/06 12:22:09;;;;;;;22.02;16.13;;;9.60;99.90;;;;;;4914671;29;19918;-72
2023/03/06 12:25:01;;;;;;;22.33;15.43;;;9.60;99.90;;;;;;4915211;29;20055;-72
2023/03/06 12:27:26;;;;;;;;;;;9.50;99.90;;;;;;4901676;29;20044;-73
2023/03/06 12:30:02;;;;;;;19.05;12.35;;;9.50;99.90;;;;;;4912593;29;19964;-72
2023/03/06 12:32:48;;;;;;;19.45;14.18;;;9.40;99.90;;;;;;4898662;29;20044;-72
2023/03/06 12:35:21;;;;;;;20.50;14.45;;;9.30;99.90;;;;;;4899171;29;20532;-72
2023/03/06 12:38:17;;;;;;;19.70;13.65;;;9.40;99.90;;;;;;4880660;29;20482;-72
2023/03/06 12:41:02;;;;;;;20.02;14.20;;;9.40;99.90;;;;;;4894994;29;20579;-74
2023/03/06 12:44:05;;;;;;;20.77;13.52;;;9.40;99.90;;;;;;4915299;29;20036;-72
2023/03/06 12:46:34;;;;;;;30.33;18.95;;;9.40;99.90;;;;;;4914298;29;20044;-72
2023/03/06 12:49:24;;;;;;;21.30;13.98;;;9.40;99.90;;;;;;4883017;29;20028;-73